Time;durP1;ratioP1;P1;durP2;ratioP2;P2;SDS_P1;SDS_P2;PMS_P1;PMS_P2;Temp;Humidity;BMP_temperature;BMP_pressure;BME280_temperature;BME280_humidity;BME280_pressure;Samples;Min_cycle;Max_cycle;Signal;HPM_P1;HPM_P2
2022/09/01 00:01:19;;;;;;;4.08;2.20;;;;;;;17.26;57.59;99741.28;1803208;77;21026;-76
2022/09/01 00:03:47;;;;;;;2.08;1.87;;;;;;;17.27;57.62;99741.60;1815754;77;21010;-78
2022/09/01 00:06:21;;;;;;;2.95;2.10;;;;;;;17.28;57.63;99743.23;1795774;78;21030;-78
2022/09/01 00:08:44;;;;;;;2.22;1.90;;;;;;;17.30;57.56;99747.88;1816698;79;21025;-78
2022/09/01 00:11:10;;;;;;;2.67;1.72;;;;;;;17.30;57.63;99739.81;1814951;77;21200;-77
2022/09/01 00:13:37;;;;;;;5.17;1.85;;;;;;;17.29;57.69;99739.53;1815582;77;21344;-75
2022/09/01 00:16:04;;;;;;;4.12;1.82;;;;;;;17.30;57.61;99742.50;1815502;77;21027;-75
2022/09/01 00:18:31;;;;;;;2.52;1.85;;;;;;;17.28;57.58;99739.20;1795157;77;21097;-78
2022/09/01 00:20:58;;;;;;;1.95;1.57;;;;;;;17.25;57.42;99739.12;1817250;77;21066;-78
2022/09/01 00:23:26;;;;;;;2.77;1.77;;;;;;;17.24;57.36;99743.36;1803950;77;21017;-77
2022/09/01 00:25:54;;;;;;;2.47;2.00;;;;;;;17.24;57.31;99744.70;1806571;77;21097;-77
2022/09/01 00:28:20;;;;;;;4.12;1.75;;;;;;;17.23;57.13;99744.38;1801135;77;21046;-76
2022/09/01 00:30:47;;;;;;;7.75;1.65;;;;;;;17.21;57.16;99741.08;1784326;77;21064;-76
2022/09/01 00:33:13;;;;;;;3.80;1.72;;;;;;;17.18;56.87;99741.00;1815164;77;21029;-77
2022/09/01 00:35:40;;;;;;;2.42;1.37;;;;;;;17.17;56.72;99742.54;1825375;77;21128;-77
2022/09/01 00:38:07;;;;;;;3.67;1.67;;;;;;;17.15;56.42;99740.59;1814920;77;21112;-76
2022/09/01 00:40:34;;;;;;;2.33;1.60;;;;;;;17.12;56.24;99747.73;1809758;79;21167;-78
2022/09/01 00:43:13;;;;;;;3.60;1.82;;;;;;;17.08;56.10;99749.48;1816552;77;21042;-80
2022/09/01 00:45:40;;;;;;;2.98;1.50;;;;;;;17.05;56.01;99748.55;1787801;79;21042;-78
2022/09/01 00:48:08;;;;;;;2.17;1.40;;;;;;;17.02;55.92;99748.17;1816084;77;21510;-80
2022/09/01 00:50:37;;;;;;;3.65;1.52;;;;;;;16.97;55.88;99743.42;1817675;78;21097;-77
2022/09/01 00:53:04;;;;;;;2.98;1.30;;;;;;;16.95;55.91;99752.72;1817700;77;21042;-78
2022/09/01 00:55:32;;;;;;;2.40;1.62;;;;;;;16.91;56.06;99753.66;1807410;77;21096;-77
2022/09/01 00:57:59;;;;;;;2.70;1.90;;;;;;;16.87;56.19;99747.88;1797556;79;21033;-77
2022/09/01 01:00:28;;;;;;;1.70;1.60;;;;;;;16.84;56.44;99747.47;1801367;77;21167;-76
2022/09/01 01:02:55;;;;;;;2.65;1.37;;;;;;;16.82;56.74;99751.69;1814414;77;21084;-77
2022/09/01 01:05:26;;;;;;;2.92;1.82;;;;;;;16.81;57.13;99747.88;1815169;77;21062;-75
2022/09/01 01:07:53;;;;;;;3.08;1.47;;;;;;;16.77;57.48;99745.30;1819550;78;21047;-76
2022/09/01 01:10:21;;;;;;;2.70;1.67;;;;;;;16.74;57.85;99748.39;1819784;77;21621;-75
2022/09/01 01:12:51;;;;;;;2.08;1.55;;;;;;;16.70;57.88;99744.77;1818672;79;21112;-77
2022/09/01 01:15:18;;;;;;;2.22;1.77;;;;;;;16.64;57.72;99742.92;1816234;77;21033;-77
2022/09/01 01:17:44;;;;;;;1.87;1.32;;;;;;;16.53;57.60;99737.36;1806498;78;21015;-77
2022/09/01 01:23:39;;;;;;;2.15;1.52;;;;;;;16.46;57.64;99752.13;1817865;78;21014;-76
2022/09/01 01:26:09;;;;;;;4.03;1.50;;;;;;;16.42;57.86;99753.05;1814351;77;21207;-77
2022/09/01 01:28:38;;;;;;;3.45;1.77;;;;;;;16.35;58.24;99756.23;1795223;79;21612;-76
2022/09/01 01:31:14;;;;;;;2.17;1.40;;;;;;;16.30;58.56;99747.48;1817145;77;21017;-76
2022/09/01 01:33:45;;;;;;;3.72;1.60;;;;;;;16.26;58.76;99755.63;1785757;77;21073;-76
2022/09/01 01:36:18;;;;;;;4.28;1.92;;;;;;;16.19;59.05;99750.77;1801547;77;21470;-75
2022/09/01 01:38:47;;;;;;;1.77;1.65;;;;;;;16.12;59.27;99746.72;1810952;77;21381;-77
2022/09/01 01:41:18;;;;;;;2.35;1.47;;;;;;;16.06;59.47;99743.52;1805947;77;21062;-77
2022/09/01 01:43:44;;;;;;;1.72;1.60;;;;;;;16.01;59.72;99747.84;1811804;77;21093;-78
2022/09/01 01:46:13;;;;;;;2.72;1.65;;;;;;;15.93;60.02;99743.49;1805644;77;21021;-78
2022/09/01 01:48:41;;;;;;;2.10;1.60;;;;;;;15.85;60.20;99742.35;1804564;77;21077;-78
2022/09/01 01:51:09;;;;;;;4.20;2.20;;;;;;;15.79;60.42;99743.98;1817190;77;21487;-78
2022/09/01 01:53:35;;;;;;;2.37;1.87;;;;;;;15.75;60.52;99740.58;1803365;77;21508;-78
2022/09/01 01:56:03;;;;;;;4.35;1.90;;;;;;;15.65;60.81;99736.39;1807468;77;21359;-79
2022/09/01 01:58:32;;;;;;;6.17;4.15;;;;;;;15.53;61.11;99734.00;1816848;77;21061;-76
2022/09/01 02:00:59;;;;;;;5.40;3.35;;;;;;;15.44;61.90;99733.33;1799911;77;21053;-79
2022/09/01 02:03:29;;;;;;;8.70;4.67;;;;;;;15.33;62.63;99736.58;1796349;77;21049;-78
2022/09/01 02:05:56;;;;;;;6.45;5.00;;;;;;;15.21;63.62;99732.83;1788897;77;21009;-77
2022/09/01 02:08:24;;;;;;;6.35;4.75;;;;;;;15.07;64.35;99730.59;1803623;77;21027;-76
2022/09/01 02:10:54;;;;;;;8.98;5.42;;;;;;;14.94;65.23;99727.33;1796100;77;21019;-77
2022/09/01 02:13:24;;;;;;;11.55;5.65;;;;;;;14.82;66.01;99728.39;1815682;77;21532;-78
2022/09/01 02:15:52;;;;;;;11.43;6.15;;;;;;;14.69;66.73;99722.43;1808959;78;21184;-77
2022/09/01 02:18:36;;;;;;;6.97;4.53;;;;;;;14.58;67.16;99725.64;1814603;77;21053;-77
2022/09/01 02:21:10;;;;;;;9.43;5.47;;;;;;;14.57;67.66;99729.34;1802695;77;21147;-77
2022/09/01 02:23:39;;;;;;;10.72;5.95;;;;;;;14.59;67.77;99724.63;1805298;79;21054;-77
2022/09/01 02:26:07;;;;;;;7.97;6.50;;;;;;;14.58;68.05;99735.52;1825272;76;21049;-76
2022/09/01 02:28:36;;;;;;;10.30;6.35;;;;;;;14.58;68.24;99736.84;1825673;76;21138;-77
2022/09/01 02:31:03;;;;;;;12.20;6.42;;;;;;;14.57;68.43;99735.21;1826250;77;21100;-75
2022/09/01 02:33:30;;;;;;;9.38;6.17;;;;;;;14.52;68.68;99741.09;1827420;76;21084;-76
2022/09/01 02:36:01;;;;;;;13.22;7.33;;;;;;;14.45;68.96;99732.22;1822138;76;21533;-75
2022/09/01 02:38:28;;;;;;;8.20;6.17;;;;;;;14.43;69.18;99739.57;1781310;78;21020;-77
2022/09/01 02:40:57;;;;;;;11.03;6.53;;;;;;;14.40;69.31;99730.10;1822444;78;21193;-75
2022/09/01 02:43:27;;;;;;;11.50;6.87;;;;;;;14.41;69.48;99733.11;1821432;78;21057;-76
2022/09/01 02:45:56;;;;;;;9.35;5.53;;;;;;;14.40;69.57;99737.30;1832614;78;20997;-77
2022/09/01 02:48:35;;;;;;;8.68;6.15;;;;;;;14.46;69.57;99733.85;1822602;78;20986;-78
2022/09/01 02:51:08;;;;;;;8.55;5.72;;;;;;;14.58;69.40;99733.66;1793371;76;21101;-78
2022/09/01 02:53:38;;;;;;;9.05;6.20;;;;;;;14.57;69.53;99736.55;1838498;77;21182;-75
2022/09/01 02:56:10;;;;;;;8.43;6.42;;;;;;;14.53;69.77;99738.23;1829918;77;21108;-73
2022/09/01 02:58:44;;;;;;;10.95;6.03;;;;;;;14.47;70.01;99743.53;1816255;76;21064;-74
2022/09/01 03:01:05;;;;;;;10.13;5.67;;;;;;;14.39;70.23;99739.16;1813406;76;21025;-72
2022/09/01 03:03:34;;;;;;;9.25;6.22;;;;;;;14.33;70.43;99746.09;1782480;78;21033;-73
2022/09/01 03:06:05;;;;;;;14.13;6.50;;;;;;;14.31;70.51;99746.80;1827974;76;21072;-76
2022/09/01 03:08:35;;;;;;;8.88;6.00;;;;;;;14.31;70.62;99749.95;1827521;76;20982;-75
2022/09/01 03:11:00;;;;;;;11.60;6.10;;;;;;;14.27;70.74;99746.84;1827261;76;21104;-73
2022/09/01 03:13:30;;;;;;;10.03;5.78;;;;;;;14.24;70.87;99751.25;1818236;78;21085;-76
2022/09/01 03:15:56;;;;;;;10.40;6.03;;;;;;;14.21;70.98;99760.16;1816207;77;21538;-75
2022/09/01 03:18:23;;;;;;;10.30;6.03;;;;;;;14.30;70.90;99763.84;1812961;77;21515;-74
2022/09/01 03:20:51;;;;;;;9.45;5.37;;;;;;;14.45;70.70;99763.77;1811817;77;21628;-74
2022/09/01 03:23:18;;;;;;;9.33;6.35;;;;;;;14.48;70.68;99762.55;1817838;78;21026;-74
2022/09/01 03:25:47;;;;;;;9.73;6.25;;;;;;;14.44;70.79;99755.94;1810502;77;20978;-75
2022/09/01 03:28:14;;;;;;;8.73;6.10;;;;;;;14.39;70.90;99771.23;1816967;77;21525;-76
2022/09/01 03:30:50;;;;;;;10.53;5.75;;;;;;;14.32;71.11;99772.48;1795832;77;21959;-74
2022/09/01 03:33:18;;;;;;;10.08;5.97;;;;;;;14.21;71.29;99768.98;1816556;77;21041;-75
2022/09/01 03:35:45;;;;;;;10.00;6.10;;;;;;;14.12;71.56;99774.16;1816304;79;21589;-74
2022/09/01 03:38:16;;;;;;;13.72;7.45;;;;;;;14.04;71.71;99776.94;1802581;77;20978;-75
2022/09/01 03:40:43;;;;;;;10.32;5.87;;;;;;;14.02;71.88;99781.64;1807191;77;21015;-72
2022/09/01 03:43:11;;;;;;;9.98;6.20;;;;;;;14.06;71.92;99782.42;1799670;77;21859;-73
2022/09/01 03:45:39;;;;;;;11.08;6.42;;;;;;;14.17;71.73;99778.41;1815026;77;21097;-76
2022/09/01 03:48:07;;;;;;;11.75;6.50;;;;;;;14.24;71.62;99780.64;1803473;78;21055;-74
2022/09/01 03:50:39;;;;;;;9.20;6.33;;;;;;;14.31;71.41;99782.02;1802738;77;21041;-75
2022/09/01 03:53:06;;;;;;;9.35;6.58;;;;;;;14.36;71.15;99788.45;1818124;79;20999;-74
2022/09/01 03:55:34;;;;;;;9.83;7.37;;;;;;;14.44;70.89;99782.15;1815371;77;21184;-73
2022/09/01 03:58:06;;;;;;;14.83;7.10;;;;;;;14.48;70.31;99782.08;1813386;77;21081;-75
2022/09/01 04:00:41;;;;;;;14.37;7.77;;;;;;;14.54;70.38;99781.82;1799064;77;21089;-77
2022/09/01 04:03:09;;;;;;;13.53;7.35;;;;;;;14.63;70.17;99781.22;1809723;77;21745;-74
2022/09/01 04:05:39;;;;;;;19.20;7.92;;;;;;;14.69;69.88;99781.25;1812507;77;21041;-75
2022/09/01 04:08:10;;;;;;;12.63;7.97;;;;;;;14.73;69.63;99777.69;1798903;79;21779;-75
2022/09/01 04:10:50;;;;;;;11.68;7.95;;;;;;;14.74;69.15;99788.19;1811024;77;21490;-74
2022/09/01 04:13:29;;;;;;;11.65;7.35;;;;;;;14.72;68.90;99790.76;1813251;77;21038;-76
2022/09/01 04:15:56;;;;;;;11.70;7.35;;;;;;;14.72;68.82;99789.42;1815234;77;21057;-76
2022/09/01 04:18:23;;;;;;;13.35;7.50;;;;;;;14.75;68.78;99787.67;1808286;77;21100;-74
2022/09/01 04:20:55;;;;;;;10.85;7.72;;;;;;;14.89;68.44;99789.93;1800869;77;21211;-75
2022/09/01 04:23:35;;;;;;;10.85;7.17;;;;;;;15.05;67.69;99792.32;1789615;77;21075;-75
2022/09/01 04:26:08;;;;;;;12.23;7.80;;;;;;;15.10;67.46;99786.38;1808736;79;20996;-75
2022/09/01 04:28:48;;;;;;;10.25;7.78;;;;;;;15.14;67.21;99787.14;1797605;77;21004;-77
2022/09/01 04:31:17;;;;;;;11.10;7.28;;;;;;;15.24;67.09;99793.95;1806030;77;22467;-75
2022/09/01 04:33:45;;;;;;;12.47;8.00;;;;;;;15.38;66.84;99791.69;1806515;77;21075;-76
2022/09/01 04:36:24;;;;;;;12.75;8.30;;;;;;;15.49;66.41;99795.64;1794203;77;21016;-80
2022/09/01 04:38:54;;;;;;;12.78;7.95;;;;;;;15.58;66.24;99790.95;1787732;77;21028;-79
2022/09/01 04:41:24;;;;;;;12.23;7.80;;;;;;;15.68;66.20;99796.27;1789055;77;21540;-78
2022/09/01 04:43:55;;;;;;;10.85;7.83;;;;;;;15.79;65.75;99796.73;1795364;77;21028;-76
2022/09/01 04:46:21;;;;;;;10.08;7.62;;;;;;;15.87;65.25;99800.56;1782749;79;21869;-79
2022/09/01 04:48:51;;;;;;;11.28;8.45;;;;;;;15.94;64.84;99800.60;1802318;79;21035;-77
2022/09/01 04:51:19;;;;;;;11.48;8.05;;;;;;;15.96;64.24;99799.36;1799930;79;21438;-75
2022/09/01 04:53:56;;;;;;;10.80;8.03;;;;;;;15.95;64.27;99807.08;1803434;79;21465;-76
2022/09/01 04:56:24;;;;;;;10.48;7.58;;;;;;;15.99;64.01;99798.13;1810520;79;21000;-77
2022/09/01 04:59:05;;;;;;;10.85;7.20;;;;;;;16.01;63.78;99794.23;1805664;79;21753;-77
2022/09/01 05:01:30;;;;;;;13.83;8.83;;;;;;;16.05;63.56;99793.29;1754929;80;21041;-76
2022/09/01 05:04:02;;;;;;;12.33;8.80;;;;;;;16.07;63.27;99797.93;1780591;79;21063;-76
2022/09/01 05:06:40;;;;;;;10.65;7.45;;;;;;;16.09;63.53;99795.91;1778816;80;22043;-78
2022/09/01 05:09:10;;;;;;;10.50;7.53;;;;;;;16.14;63.38;99801.46;1760313;80;21061;-78
2022/09/01 05:11:44;;;;;;;12.33;7.65;;;;;;;16.20;62.84;99805.19;1738426;80;21237;-74
2022/09/01 05:14:12;;;;;;;12.05;7.85;;;;;;;16.25;63.23;99798.71;1805002;77;20986;-75
2022/09/01 05:16:41;;;;;;;12.63;8.50;;;;;;;16.34;63.08;99804.69;1764947;80;21034;-77
2022/09/01 05:19:13;;;;;;;14.03;8.40;;;;;;;16.40;62.33;99797.16;1776125;80;21007;-77
2022/09/01 05:21:37;;;;;;;10.90;6.97;;;;;;;16.44;62.17;99795.75;1796874;79;20986;-77
2022/09/01 05:24:04;;;;;;;13.88;8.50;;;;;;;16.48;61.83;99794.30;1792799;80;21118;-76
2022/09/01 05:26:34;;;;;;;13.72;7.80;;;;;;;16.57;61.61;99793.05;1807934;78;21105;-77
2022/09/01 05:29:06;;;;;;;10.85;7.05;;;;;;;16.62;61.32;99796.47;1793876;77;21089;-78
2022/09/01 05:31:36;;;;;;;12.80;7.03;;;;;;;16.66;61.44;99795.84;1823117;78;21018;-75
2022/09/01 05:34:02;;;;;;;11.90;7.35;;;;;;;16.76;61.55;99800.79;1827622;78;21042;-76
2022/09/01 05:36:32;;;;;;;12.53;7.92;;;;;;;16.86;61.37;99793.20;1829370;78;21080;-75
2022/09/01 05:38:59;;;;;;;10.75;7.35;;;;;;;16.96;61.26;99794.12;1829919;78;21045;-77
2022/09/01 05:41:27;;;;;;;10.93;6.50;;;;;;;17.06;60.78;99798.53;1824344;77;21085;-78
2022/09/01 05:43:53;;;;;;;12.45;7.45;;;;;;;17.16;60.60;99794.59;1820044;77;21097;-77
2022/09/01 05:46:26;;;;;;;12.63;6.53;;;;;;;17.26;60.23;99794.97;1796851;79;21025;-74
2022/09/01 05:48:54;;;;;;;9.58;6.47;;;;;;;17.36;60.43;99791.32;1802272;78;21128;-81
2022/09/01 05:51:25;;;;;;;8.90;6.33;;;;;;;17.51;60.32;99790.26;1805996;77;21046;-79
2022/09/01 05:53:57;;;;;;;11.28;6.87;;;;;;;17.61;60.04;99790.63;1815924;78;21068;-77
2022/09/01 05:56:25;;;;;;;10.43;6.12;;;;;;;17.72;59.60;99791.30;1830770;78;21010;-79
2022/09/01 05:58:52;;;;;;;10.50;6.12;;;;;;;17.79;59.00;99787.23;1827763;76;21549;-78
2022/09/01 06:01:25;;;;;;;12.25;6.50;;;;;;;17.84;59.15;99795.52;1827252;76;21518;-76
2022/09/01 06:03:54;;;;;;;17.02;7.20;;;;;;;17.92;59.01;99789.88;1771792;77;21132;-76
2022/09/01 06:06:32;;;;;;;12.05;7.72;;;;;;;18.02;58.38;99782.70;1826091;76;21065;-76
2022/09/01 06:08:58;;;;;;;13.48;6.87;;;;;;;18.15;58.20;99779.11;1827467;76;21062;-78
2022/09/01 06:11:27;;;;;;;12.10;8.38;;;;;;;18.30;57.93;99786.35;1796620;78;21073;-77
2022/09/01 06:13:57;;;;;;;12.18;7.35;;;;;;;18.44;57.17;99783.04;1821292;76;21557;-79
2022/09/01 06:16:24;;;;;;;10.90;6.75;;;;;;;18.52;56.84;99784.64;1822295;76;20964;-76
2022/09/01 06:18:52;;;;;;;11.60;8.00;;;;;;;18.60;56.51;99789.23;1827391;76;21042;-79
2022/09/01 06:21:21;;;;;;;8.10;6.10;;;;;;;18.65;55.95;99785.34;1827393;78;20996;-79
2022/09/01 06:23:52;;;;;;;11.75;7.25;;;;;;;18.66;55.07;99782.97;1816560;77;21040;-79
2022/09/01 06:26:29;;;;;;;11.15;6.30;;;;;;;18.64;54.91;99782.38;1828730;77;21529;-78
2022/09/01 06:29:02;;;;;;;10.55;6.10;;;;;;;18.66;54.55;99782.97;1806268;77;21012;-77
2022/09/01 06:31:34;;;;;;;8.50;5.87;;;;;;;18.69;53.55;99784.92;1840243;77;21503;-76
2022/09/01 06:36:37;;;;;;;12.73;6.35;;;;;;;18.82;53.14;99780.27;1862816;75;23200;-78
2022/09/01 06:39:05;;;;;;;10.18;6.80;;;;;;;18.87;52.79;99778.25;1815265;78;21059;-77
2022/09/01 06:41:32;;;;;;;9.68;7.03;;;;;;;18.95;52.45;99777.98;1820374;78;21109;-77
2022/09/01 06:44:01;;;;;;;12.33;7.15;;;;;;;18.97;52.33;99780.46;1814642;78;21481;-78
2022/09/01 06:46:30;;;;;;;13.40;6.35;;;;;;;19.00;51.83;99781.34;1816878;78;21519;-79
2022/09/01 06:48:58;;;;;;;10.45;6.30;;;;;;;19.03;51.85;99783.08;1821105;77;21494;-79
2022/09/01 06:51:30;;;;;;;7.90;5.35;;;;;;;19.08;51.70;99784.27;1825622;77;21018;-79
2022/09/01 06:53:58;;;;;;;8.28;4.45;;;;;;;19.16;50.92;99775.89;1824457;77;21824;-78
2022/09/01 06:56:30;;;;;;;9.48;4.80;;;;;;;19.23;50.61;99780.70;1821567;77;21029;-75
2022/09/01 06:58:57;;;;;;;6.45;4.25;;;;;;;19.29;50.00;99781.14;1785788;78;20929;-72
2022/09/01 07:01:24;;;;;;;9.15;4.60;;;;;;;19.30;49.51;99782.80;1790138;78;21005;-71
2022/09/01 07:03:53;;;;;;;10.48;5.50;;;;;;;19.33;49.80;99789.59;1819856;78;21056;-72
2022/09/01 07:06:26;;;;;;;10.85;6.25;;;;;;;19.38;49.75;99787.06;1799478;77;21094;-72
2022/09/01 07:09:01;;;;;;;7.62;5.97;;;;;;;19.46;49.53;99798.88;1771772;77;21076;-73
2022/09/01 07:11:32;;;;;;;8.93;5.70;;;;;;;19.50;49.70;99788.48;1822320;77;21057;-73
2022/09/01 07:14:02;;;;;;;8.95;6.12;;;;;;;19.59;49.69;99787.95;1812114;77;21079;-72
2022/09/01 07:16:38;;;;;;;10.40;6.37;;;;;;;19.71;49.65;99793.92;1746338;80;21581;-72
2022/09/01 07:19:01;;;;;;;7.87;5.85;;;;;;;19.84;49.27;99785.70;1779739;78;21217;-72
2022/09/01 07:21:30;;;;;;;11.65;6.65;;;;;;;20.00;48.89;99794.48;1765492;79;21120;-73
2022/09/01 07:24:00;;;;;;;12.53;7.10;;;;;;;20.14;48.54;99792.42;1770860;80;21073;-72
2022/09/01 07:26:28;;;;;;;10.10;7.85;;;;;;;20.27;48.24;99807.59;1765569;79;21085;-73
2022/09/01 07:28:56;;;;;;;9.10;7.37;;;;;;;20.33;48.20;99801.27;1760656;79;21049;-74
2022/09/01 07:31:30;;;;;;;12.18;9.20;;;;;;;20.40;47.80;99797.95;1735477;79;21256;-72
2022/09/01 07:34:00;;;;;;;13.05;9.30;;;;;;;20.44;47.88;99809.11;1762898;79;21018;-73
2022/09/01 07:36:27;;;;;;;15.15;10.58;;;;;;;20.49;47.88;99803.01;1754492;80;21074;-74
2022/09/01 07:38:54;;;;;;;12.10;10.45;;;;;;;20.56;47.83;99805.90;1752763;81;21545;-72
2022/09/01 07:41:23;;;;;;;18.75;13.32;;;;;;;20.65;47.67;99810.98;1751675;80;21045;-72
2022/09/01 07:43:59;;;;;;;18.20;13.60;;;;;;;20.70;47.31;99804.37;1713915;81;21318;-74
2022/09/01 07:46:50;;;;;;;19.50;13.53;;;;;;;20.71;47.30;99806.02;1771060;80;20993;-73
2022/09/01 07:49:15;;;;;;;22.48;15.32;;;;;;;20.68;47.05;99811.88;1748371;81;21084;-74
2022/09/01 07:51:42;;;;;;;24.52;17.73;;;;;;;20.57;47.58;99803.51;1772731;80;21554;-74
2022/09/01 07:54:12;;;;;;;27.73;19.07;;;;;;;20.56;47.57;99807.78;1763230;79;21061;-74
2022/09/01 07:56:39;;;;;;;30.62;21.70;;;;;;;20.57;47.37;99811.61;1768753;80;21559;-74
2022/09/01 07:59:06;;;;;;;30.43;22.00;;;;;;;20.58;47.56;99805.67;1771876;79;22347;-72
2022/09/01 08:01:33;;;;;;;34.85;23.70;;;;;;;20.64;47.48;99805.30;1765461;79;21042;-73
2022/09/01 08:04:03;;;;;;;35.95;25.72;;;;;;;20.66;47.48;99808.06;1765379;79;20996;-73
2022/09/01 08:06:29;;;;;;;36.42;27.62;;;;;;;20.67;47.59;99797.56;1754597;79;21048;-73
2022/09/01 08:08:58;;;;;;;40.23;27.93;;;;;;;20.70;47.51;99799.78;1759495;79;21548;-74
2022/09/01 08:11:28;;;;;;;37.95;29.48;;;;;;;20.75;47.17;99800.45;1763153;79;21502;-75
2022/09/01 08:14:01;;;;;;;39.45;29.48;;;;;;;20.78;47.38;99800.81;1755145;79;21630;-75
2022/09/01 08:16:28;;;;;;;43.58;33.13;;;;;;;20.91;47.12;99800.28;1803808;77;21030;-73
2022/09/01 08:18:56;;;;;;;46.23;38.15;;;;;;;21.06;46.62;99797.11;1811142;77;21009;-73
2022/09/01 08:21:27;;;;;;;59.03;40.80;;;;;;;21.18;46.39;99797.91;1812597;78;21122;-74
2022/09/01 08:24:02;;;;;;;56.02;38.58;;;;;;;21.23;46.24;99795.34;1811897;78;20994;-72
2022/09/01 08:26:31;;;;;;;49.15;34.73;;;;;;;21.31;46.18;99792.27;1817468;77;20982;-74
2022/09/01 08:28:58;;;;;;;47.90;36.68;;;;;;;21.43;45.62;99784.67;1782873;78;21057;-73
2022/09/01 08:31:26;;;;;;;60.52;43.00;;;;;;;21.56;45.56;99781.73;1804351;77;21146;-73
2022/09/01 08:33:54;;;;;;;60.75;46.35;;;;;;;21.71;45.53;99786.09;1742695;80;21154;-73
2022/09/01 08:36:21;;;;;;;68.87;50.60;;;;;;;21.88;45.15;99785.31;1751195;79;21586;-74
2022/09/01 08:38:48;;;;;;;58.92;48.40;;;;;;;22.02;44.80;99777.21;1761993;79;21035;-74
2022/09/01 08:41:49;;;;;;;72.22;56.20;;;;;;;22.16;43.80;99787.20;1762756;81;21082;-75
2022/09/01 08:45:03;;;;;;;67.12;52.48;;;;;;;22.26;43.78;99792.00;1748716;80;21034;-73
2022/09/01 08:47:31;;;;;;;76.35;56.55;;;;;;;22.36;42.92;99782.15;1745942;79;21311;-74
2022/09/01 08:49:58;;;;;;;61.83;49.05;;;;;;;22.49;43.10;99779.67;1757947;79;21054;-74
2022/09/01 08:52:37;;;;;;;47.75;36.40;;;;;;;22.71;43.00;99773.50;1743818;79;21241;-71
2022/09/01 08:55:28;;;;;;;30.17;21.15;;;;;;;23.00;41.78;99774.20;1777133;79;21522;-73
2022/09/01 08:57:56;;;;;;;33.40;27.35;;;;;;;23.18;40.84;99769.08;1750929;79;21081;-74
2022/09/01 09:00:26;;;;;;;41.83;32.67;;;;;;;23.41;40.66;99771.25;1735655;80;21106;-74
2022/09/01 09:03:34;;;;;;;61.23;47.30;;;;;;;23.61;40.53;99758.48;1752408;80;21593;-72
2022/09/01 09:06:33;;;;;;;72.08;54.27;;;;;;;23.80;40.46;99769.83;1756132;79;21541;-70
2022/09/01 09:09:05;;;;;;;81.12;60.58;;;;;;;24.14;40.21;99765.86;1759808;80;21102;-75
2022/09/01 09:11:57;;;;;;;75.42;60.67;;;;;;;24.66;40.09;99759.52;1760192;79;21036;-79
2022/09/01 09:14:50;;;;;;;77.78;59.60;;;;;;;25.21;39.42;99762.30;1752469;79;21361;-74
2022/09/01 09:17:20;;;;;;;70.28;59.63;;;;;;;25.83;38.80;99760.64;1745647;79;21035;-77
2022/09/01 09:19:48;;;;;;;75.87;61.63;;;;;;;26.27;37.93;99758.02;1749081;79;21027;-78
2022/09/01 09:22:17;;;;;;;71.37;59.53;;;;;;;26.39;37.39;99753.66;1748267;80;21634;-76
2022/09/01 09:24:54;;;;;;;68.22;53.75;;;;;;;26.32;37.65;99750.39;1748475;79;21128;-78
2022/09/01 09:27:28;;;;;;;66.87;51.65;;;;;;;26.28;37.56;99752.28;1751871;79;21050;-78
2022/09/01 09:30:01;;;;;;;64.00;53.52;;;;;;;26.12;37.41;99758.82;1753612;79;21553;-76
2022/09/01 09:32:54;;;;;;;;;;;;;;;25.84;37.97;99754.65;1754934;80;21062;-76
2022/09/01 09:35:39;;;;;;;40.90;30.75;;;;;;;25.58;38.33;99758.67;1750065;79;20131;-76
2022/09/01 09:38:18;;;;;;;33.50;24.32;;;;;;;25.34;38.19;99750.13;1803422;77;21029;-75
2022/09/01 09:41:10;;;;;;;20.77;15.35;;;;;;;25.17;38.37;99753.04;1810927;77;21223;-75
2022/09/01 09:43:45;;;;;;;11.85;9.95;;;;;;;25.07;38.18;99755.69;1810741;79;21085;-77
2022/09/01 09:46:35;;;;;;;12.33;9.18;;;;;;;25.00;38.08;99752.41;1814069;79;21085;-77
2022/09/01 09:49:12;;;;;;;8.78;6.35;;;;;;;24.98;38.15;99747.23;1777187;79;21584;-77
2022/09/01 09:51:43;;;;;;;7.20;5.50;;;;;;;25.02;38.05;99747.52;1798936;77;21037;-75
2022/09/01 09:54:20;;;;;;;5.78;4.40;;;;;;;25.08;37.95;99747.27;1808973;79;21072;-75
2022/09/01 09:56:48;;;;;;;6.67;3.80;;;;;;;25.00;37.28;99751.05;1804175;79;21119;-76
2022/09/01 09:59:27;;;;;;;3.67;3.30;;;;;;;24.76;37.54;99755.50;1805462;77;21066;-77
2022/09/01 10:01:59;;;;;;;5.97;3.95;;;;;;;24.64;38.24;99752.16;1811319;79;21008;-77
2022/09/01 10:04:36;;;;;;;4.62;3.50;;;;;;;24.75;38.35;99754.42;1794730;79;20990;-76
2022/09/01 10:07:34;;;;;;;5.75;3.55;;;;;;;24.78;38.25;99745.73;1800839;78;21057;-76
2022/09/01 10:10:05;;;;;;;5.22;3.05;;;;;;;24.97;38.00;99751.56;1809560;77;21017;-75
2022/09/01 10:12:33;;;;;;;4.40;3.53;;;;;;;25.31;37.71;99747.96;1836027;77;21035;-77
2022/09/01 10:15:06;;;;;;;4.08;3.67;;;;;;;25.61;36.81;99746.42;1815943;77;21616;-78
2022/09/01 10:17:41;;;;;;;5.80;3.80;;;;;;;25.95;36.68;99744.09;1810972;77;20983;-75
2022/09/01 10:20:13;;;;;;;5.28;3.70;;;;;;;26.72;36.22;99747.41;1813067;77;21120;-75
2022/09/01 10:22:40;;;;;;;5.70;3.47;;;;;;;27.24;35.05;99739.34;1802243;78;21062;-77
2022/09/01 10:25:08;;;;;;;6.12;4.33;;;;;;;27.51;35.10;99742.27;1797533;77;21069;-75
2022/09/01 10:27:38;;;;;;;5.08;3.65;;;;;;;27.59;35.01;99754.76;1796344;77;21481;-75
2022/09/01 10:30:18;;;;;;;5.33;3.20;;;;;;;27.51;34.70;99751.27;1802445;77;21052;-72
2022/09/01 10:32:56;;;;;;;4.22;3.00;;;;;;;27.66;34.69;99755.80;1809637;77;21137;-74
2022/09/01 10:35:30;;;;;;;4.47;3.60;;;;;;;28.03;34.35;99746.35;1811870;77;21228;-75
2022/09/01 10:37:59;;;;;;;3.37;2.80;;;;;;;28.58;33.74;99744.27;1799065;77;21086;-76
2022/09/01 10:40:32;;;;;;;2.47;2.20;;;;;;;29.29;33.21;99737.79;1809451;77;21045;-74
2022/09/01 10:43:20;;;;;;;6.35;2.40;;;;;;;30.16;31.87;99743.98;1811765;77;21064;-74
2022/09/01 10:45:47;;;;;;;2.67;2.35;;;;;;;31.03;30.79;99732.89;1811817;77;21435;-75
2022/09/01 10:48:26;;;;;;;4.03;3.62;;;;;;;31.77;29.76;99726.39;1823563;77;21071;-73
2022/09/01 10:50:55;;;;;;;4.33;3.70;;;;;;;32.35;29.44;99724.73;1809878;77;20997;-73
2022/09/01 10:53:37;;;;;;;4.17;2.87;;;;;;;32.63;28.51;99724.62;1816250;78;21021;-73
2022/09/01 10:56:19;;;;;;;5.00;4.35;;;;;;;32.54;28.03;99724.53;1818003;77;21100;-74
2022/09/01 10:59:09;;;;;;;4.87;4.17;;;;;;;32.22;27.96;99727.00;1811878;77;21056;-74
2022/09/01 11:01:48;;;;;;;8.98;5.37;;;;;;;32.04;27.98;99724.70;1775380;80;21033;-74
2022/09/01 11:04:19;;;;;;;8.10;6.75;;;;;;;32.22;28.28;99720.95;1753605;80;21112;-72
2022/09/01 11:07:24;;;;;;;8.93;7.40;;;;;;;32.91;27.13;99720.51;1755276;79;21078;-75
2022/09/01 11:10:32;;;;;;;11.70;8.33;;;;;;;33.08;27.10;99717.01;1759745;79;21089;-75
2022/09/01 11:13:24;;;;;;;9.80;8.83;;;;;;;33.28;26.99;99712.06;1757670;79;21138;-75
2022/09/01 11:15:52;;;;;;;12.85;11.10;;;;;;;33.00;26.39;99714.25;1744674;80;21631;-73
2022/09/01 11:18:30;;;;;;;21.10;17.52;;;;;;;32.28;27.31;99723.02;1748620;81;21070;-72
2022/09/01 11:21:20;;;;;;;21.10;18.73;;;;;;;31.96;27.93;99727.59;1756518;79;21046;-75
2022/09/01 11:23:46;;;;;;;21.95;16.70;;;;;;;31.83;28.18;99722.96;1756986;80;21591;-76
2022/09/01 11:26:37;;;;;;;18.90;16.73;;;;;;;31.80;28.07;99715.36;1760034;80;21233;-74
2022/09/01 11:29:03;;;;;;;22.20;18.70;;;;;;;31.81;28.26;99710.91;1759685;80;21101;-75
2022/09/01 11:31:40;;;;;;;23.15;18.87;;;;;;;32.17;28.49;99701.04;1794317;77;21021;-74
2022/09/01 11:34:16;;;;;;;20.97;17.65;;;;;;;32.78;28.04;99704.95;1811016;77;21020;-74
2022/09/01 11:36:48;;;;;;;21.33;17.15;;;;;;;33.35;27.65;99708.86;1814276;77;21047;-74
2022/09/01 11:39:32;;;;;;;17.75;14.40;;;;;;;34.02;27.25;99708.41;1828955;77;21282;-80
2022/09/01 11:42:18;;;;;;;16.20;14.60;;;;;;;34.71;26.34;99715.51;1823404;77;21041;-72
2022/09/01 11:45:03;;;;;;;17.70;14.68;;;;;;;34.86;25.48;99711.62;1820063;77;22020;-74
2022/09/01 11:47:36;;;;;;;18.00;15.10;;;;;;;34.41;25.48;99709.33;1815055;77;21489;-75
2022/09/01 11:50:24;;;;;;;18.40;14.73;;;;;;;34.14;26.32;99707.74;1817999;77;21022;-73
2022/09/01 11:52:59;;;;;;;16.82;14.05;;;;;;;34.54;26.29;99698.41;1823044;77;21252;-74
2022/09/01 11:55:39;;;;;;;14.15;12.45;;;;;;;35.14;25.61;99713.13;1815782;77;21075;-74